createdAt,value
2024-05-09T00:00:57.753Z,80.65
2024-05-09T00:03:30.136Z,80.78
2024-05-09T00:06:02.887Z,81.39
2024-05-09T00:08:35.267Z,81.47
2024-05-09T00:11:07.838Z,81.41
2024-05-09T00:13:40.438Z,81.61
2024-05-09T00:16:13.324Z,81.55
2024-05-09T00:18:46.603Z,81.37
2024-05-09T00:21:19.305Z,80.73
2024-05-09T00:23:52.003Z,80.72
2024-05-09T00:26:25.223Z,80.38
2024-05-09T00:28:57.828Z,80.43
2024-05-09T00:31:30.509Z,80.10
2024-05-09T00:34:02.916Z,79.45
2024-05-09T00:36:35.893Z,79.16
2024-05-09T00:39:09.416Z,79.18
2024-05-09T00:41:42.054Z,79.07
2024-05-09T00:44:14.545Z,78.90
2024-05-09T00:46:47.394Z,78.56
2024-05-09T00:49:20.346Z,78.66
2024-05-09T00:51:54.991Z,78.64
2024-05-09T00:54:28.176Z,78.76
2024-05-09T00:57:01.125Z,78.79
2024-05-09T00:59:34.929Z,78.60
2024-05-09T01:02:08.906Z,78.59
2024-05-09T01:04:42.161Z,77.97
2024-05-09T01:07:14.530Z,78.00
2024-05-09T01:09:47.918Z,77.62
2024-05-09T01:12:20.469Z,77.46
2024-05-09T01:14:53.193Z,77.76
2024-05-09T01:17:26.793Z,77.73
2024-05-09T01:19:59.603Z,77.20
2024-05-09T01:22:36.454Z,77.35
2024-05-09T01:25:09.004Z,77.40
2024-05-09T01:27:41.321Z,77.45
2024-05-09T01:30:21.250Z,77.13
2024-05-09T01:32:51.460Z,76.85
2024-05-09T01:35:24.145Z,76.54
2024-05-09T01:37:57.586Z,77.01
2024-05-09T01:40:37.216Z,76.92
2024-05-09T01:43:04.579Z,76.71
2024-05-09T01:45:36.994Z,76.36
2024-05-09T01:48:11.442Z,76.53
2024-05-09T01:50:44.263Z,76.61
2024-05-09T01:53:17.467Z,76.24
2024-05-09T01:55:50.021Z,76.34
2024-05-09T01:58:22.503Z,75.92
2024-05-09T02:00:55.079Z,76.14
2024-05-09T02:03:28.473Z,74.66
2024-05-09T02:06:01.428Z,75.67
2024-05-09T02:08:34.021Z,75.64
2024-05-09T02:11:08.283Z,76.28
2024-05-09T02:13:42.759Z,76.06
2024-05-09T02:16:16.342Z,76.13
2024-05-09T02:18:54.163Z,76.53
2024-05-09T02:21:26.706Z,76.32
2024-05-09T02:23:59.636Z,75.22
2024-05-09T02:26:32.567Z,74.78
2024-05-09T02:29:05.120Z,74.95
2024-05-09T02:31:37.844Z,73.41
2024-05-09T02:34:10.441Z,73.86
2024-05-09T02:36:42.788Z,73.45
2024-05-09T02:39:15.154Z,73.56
2024-05-09T02:41:47.792Z,73.78
2024-05-09T02:44:20.185Z,74.58
2024-05-09T02:46:52.706Z,73.60
2024-05-09T02:49:25.510Z,72.00
2024-05-09T02:51:57.935Z,72.06
2024-05-09T02:54:30.244Z,72.74
2024-05-09T02:57:02.967Z,73.46
2024-05-09T02:59:35.632Z,72.62
2024-05-09T03:02:08.959Z,71.51
2024-05-09T03:04:43.963Z,70.97
2024-05-09T03:07:19.721Z,69.94
2024-05-09T03:09:50.976Z,68.87
2024-05-09T03:12:23.167Z,69.56
2024-05-09T03:14:56.091Z,69.58
2024-05-09T03:17:29.233Z,68.73
2024-05-09T03:20:02.238Z,67.81
2024-05-09T03:22:34.520Z,67.19
2024-05-09T03:25:07.804Z,66.81
2024-05-09T03:27:41.356Z,67.58
2024-05-09T03:30:28.746Z,68.28
2024-05-09T03:32:49.695Z,67.78
2024-05-09T03:35:22.004Z,67.51
2024-05-09T03:37:54.826Z,67.71
2024-05-09T03:40:30.878Z,68.18
2024-05-09T03:43:02.517Z,67.97
2024-05-09T03:45:35.383Z,67.89
2024-05-09T03:48:09.118Z,68.09
2024-05-09T03:50:42.005Z,66.28
2024-05-09T03:53:16.165Z,66.30
2024-05-09T03:55:51.140Z,65.88
2024-05-09T03:58:23.795Z,63.82
2024-05-09T04:00:57.261Z,64.00
2024-05-09T04:03:30.495Z,63.70
2024-05-09T04:06:03.069Z,63.98
2024-05-09T04:08:35.621Z,63.00
2024-05-09T04:11:08.720Z,63.74
2024-05-09T04:13:41.088Z,63.00
2024-05-09T04:16:13.771Z,64.11
2024-05-09T04:18:46.313Z,63.25
2024-05-09T04:21:18.929Z,63.52
2024-05-09T04:23:52.180Z,61.95
2024-05-09T04:26:24.919Z,61.99
2024-05-09T04:28:57.610Z,60.51
2024-05-09T04:31:31.715Z,60.25
2024-05-09T04:34:04.744Z,59.79
2024-05-09T04:36:38.522Z,60.46
2024-05-09T04:39:11.449Z,60.95
2024-05-09T04:41:44.821Z,61.00
2024-05-09T04:44:18.846Z,61.19
2024-05-09T04:46:51.564Z,61.22
2024-05-09T04:49:24.615Z,61.96
2024-05-09T04:51:57.262Z,62.11
2024-05-09T04:54:34.187Z,60.20
2024-05-09T04:57:03.948Z,57.35
2024-05-09T04:59:37.584Z,57.04
2024-05-09T05:02:10.793Z,58.25
2024-05-09T05:04:43.082Z,56.97
2024-05-09T05:07:15.678Z,58.31
2024-05-09T05:09:48.812Z,56.45
2024-05-09T05:12:39.359Z,56.19
2024-05-09T05:15:11.940Z,58.20
2024-05-09T05:17:45.884Z,55.64
2024-05-09T05:20:27.150Z,55.94
2024-05-09T05:22:52.428Z,57.65
2024-05-09T05:25:25.697Z,56.76
2024-05-09T05:27:57.926Z,55.06
2024-05-09T05:30:34.567Z,53.99
2024-05-09T05:33:07.781Z,52.14
2024-05-09T05:35:41.867Z,54.16
2024-05-09T05:38:14.575Z,55.85
2024-05-09T05:40:47.724Z,56.91
2024-05-09T05:43:21.581Z,55.08
2024-05-09T05:45:54.016Z,54.93
2024-05-09T05:48:26.866Z,54.71
2024-05-09T05:51:02.702Z,55.32
2024-05-09T05:53:33.507Z,53.49
2024-05-09T05:56:07.241Z,51.69
2024-05-09T05:58:40.579Z,51.85
2024-05-09T06:01:13.259Z,52.75
2024-05-09T06:03:46.633Z,52.95
2024-05-09T06:06:19.242Z,52.53
2024-05-09T06:08:53.270Z,52.19
2024-05-09T06:11:25.722Z,51.66
2024-05-09T06:13:58.485Z,52.01
2024-05-09T06:16:32.689Z,53.06
2024-05-09T06:19:05.999Z,54.39
2024-05-09T06:21:40.171Z,52.35
2024-05-09T06:24:14.642Z,49.02
2024-05-09T06:26:48.035Z,50.62
2024-05-09T06:29:20.971Z,50.04
2024-05-09T06:31:53.517Z,48.09
2024-05-09T06:34:28.752Z,49.85
2024-05-09T06:37:01.835Z,51.03
2024-05-09T06:39:35.735Z,48.14
2024-05-09T06:42:08.348Z,48.88
2024-05-09T06:44:41.015Z,48.58
2024-05-09T06:47:14.647Z,46.44
2024-05-09T06:49:47.665Z,47.63
2024-05-09T06:52:19.948Z,50.60
2024-05-09T06:54:55.271Z,50.25
2024-05-09T06:57:30.296Z,48.44
2024-05-09T07:00:02.995Z,49.00
2024-05-09T07:02:36.595Z,46.68
2024-05-09T07:05:13.870Z,50.11
2024-05-09T07:07:48.785Z,47.20
2024-05-09T07:10:28.917Z,50.30
2024-05-09T07:12:58.630Z,51.86
2024-05-09T07:15:32.529Z,51.88
2024-05-09T07:18:11.979Z,49.33
2024-05-09T07:20:44.807Z,48.90
2024-05-09T07:23:19.281Z,49.94
2024-05-09T07:25:55.040Z,50.25
2024-05-09T07:28:29.862Z,52.59
2024-05-09T07:31:07.355Z,52.61
2024-05-09T07:33:40.599Z,44.07
2024-05-09T07:36:14.691Z,46.07
2024-05-09T07:38:47.763Z,47.08
2024-05-09T07:41:21.549Z,46.77
2024-05-09T07:43:55.023Z,47.39
2024-05-09T07:47:36.805Z,47.39
2024-05-09T07:50:53.287Z,49.36
2024-05-09T07:54:22.208Z,48.22
2024-05-09T07:56:56.479Z,48.66
2024-05-09T07:59:30.098Z,48.65
2024-05-09T08:02:07.664Z,44.96
2024-05-09T08:04:43.189Z,47.43
2024-05-09T08:07:20.228Z,45.91
2024-05-09T08:09:56.283Z,45.47
2024-05-09T08:12:31.826Z,42.85
2024-05-09T08:15:07.032Z,45.53
2024-05-09T08:17:38.882Z,46.61
2024-05-09T08:20:18.750Z,39.92
2024-05-09T08:22:50.246Z,41.54
2024-05-09T08:25:28.970Z,41.19
2024-05-09T08:28:03.298Z,40.69
2024-05-09T08:30:37.925Z,40.58
2024-05-09T08:33:11.715Z,39.63
2024-05-09T08:35:45.464Z,41.23
2024-05-09T08:38:18.340Z,41.34
2024-05-09T08:40:53.533Z,42.11
2024-05-09T08:43:29.784Z,39.74
2024-05-09T08:46:08.252Z,39.48
2024-05-09T08:48:43.453Z,39.98
2024-05-09T08:51:19.432Z,39.15
2024-05-09T08:53:55.954Z,38.99
2024-05-09T08:56:35.949Z,39.55
2024-05-09T08:59:13.683Z,39.20
2024-05-09T09:01:48.460Z,38.63
2024-05-09T09:04:25.259Z,36.47
2024-05-09T09:07:00.426Z,35.03
2024-05-09T09:09:38.939Z,35.53
2024-05-09T09:12:14.350Z,33.69
2024-05-09T09:14:51.051Z,33.97
2024-05-09T09:17:25.317Z,33.94
2024-05-09T09:20:05.323Z,33.60
2024-05-09T09:22:38.575Z,33.16
2024-05-09T09:25:12.545Z,33.03
2024-05-09T09:27:45.261Z,34.03
2024-05-09T09:30:31.410Z,34.63
2024-05-09T09:32:53.857Z,33.41
2024-05-09T09:35:28.984Z,34.76
2024-05-09T09:38:08.077Z,33.81
2024-05-09T09:40:49.507Z,34.25
2024-05-09T09:43:24.211Z,33.14
2024-05-09T09:46:02.822Z,32.63
2024-05-09T09:48:39.621Z,32.91
2024-05-09T09:51:13.111Z,34.81
2024-05-09T09:53:47.028Z,34.69
2024-05-09T09:56:24.834Z,34.72
2024-05-09T09:59:03.238Z,35.17
2024-05-09T10:01:40.212Z,35.17
2024-05-09T10:04:19.293Z,33.48
2024-05-09T10:06:58.085Z,32.44
2024-05-09T10:09:33.445Z,32.37
2024-05-09T10:12:12.547Z,31.28
2024-05-09T10:17:52.693Z,32.63
2024-05-09T10:20:30.866Z,33.99
2024-05-09T10:23:02.544Z,34.10
2024-05-09T10:25:35.237Z,33.64
2024-05-09T10:28:14.219Z,33.61
2024-05-09T10:33:22.237Z,32.38
2024-05-09T10:35:56.150Z,32.19
2024-05-09T10:38:30.461Z,31.79
2024-05-09T10:41:06.467Z,32.04
2024-05-09T10:43:43.863Z,31.41
2024-05-09T10:46:21.461Z,30.73
2024-05-09T10:48:57.973Z,31.29
2024-05-09T10:51:37.771Z,31.54
2024-05-09T10:54:12.258Z,31.27
2024-05-09T10:56:47.314Z,31.10
2024-05-09T10:59:23.022Z,31.29
2024-05-09T11:01:59.213Z,31.92
2024-05-09T11:04:42.068Z,32.81
2024-05-09T11:07:20.179Z,31.28
2024-05-09T11:09:56.224Z,30.89
2024-05-09T11:12:30.082Z,30.26
2024-05-09T11:15:07.306Z,30.46
2024-05-09T11:17:45.886Z,30.15
2024-05-09T11:20:29.118Z,29.56
2024-05-09T11:22:56.684Z,29.32
2024-05-09T11:25:32.002Z,27.34
2024-05-09T11:28:10.297Z,26.58
2024-05-09T11:30:43.639Z,26.81
2024-05-09T11:33:20.091Z,26.57
2024-05-09T11:35:55.516Z,28.00
2024-05-09T11:38:32.189Z,27.66
2024-05-09T11:41:07.963Z,27.44
2024-05-09T11:43:44.286Z,27.72
2024-05-09T11:46:21.889Z,27.53
2024-05-09T11:48:58.384Z,27.62
2024-05-09T11:51:38.140Z,27.12
2024-05-09T11:54:12.037Z,27.08
2024-05-09T11:56:47.558Z,25.71
2024-05-09T11:59:22.341Z,25.78
2024-05-09T12:01:57.777Z,26.12
2024-05-09T12:04:35.736Z,26.88
2024-05-09T12:07:13.040Z,27.07
2024-05-09T12:09:47.772Z,26.28
2024-05-09T12:12:22.127Z,23.15
2024-05-09T12:14:56.129Z,25.78
2024-05-09T12:17:30.972Z,23.22
2024-05-09T12:20:09.143Z,24.02
2024-05-09T12:22:41.109Z,23.78
2024-05-09T12:25:25.672Z,22.80
2024-05-09T12:28:02.278Z,21.60
2024-05-09T12:30:41.718Z,24.09
2024-05-09T12:33:16.909Z,22.95
2024-05-09T12:35:52.145Z,23.42
2024-05-09T12:38:28.901Z,23.26
2024-05-09T12:41:07.277Z,23.73
2024-05-09T12:43:42.378Z,23.81
2024-05-09T12:46:20.962Z,24.48
2024-05-09T12:48:54.744Z,23.51
2024-05-09T12:51:32.092Z,22.20
2024-05-09T12:54:09.221Z,20.18
2024-05-09T12:56:43.490Z,18.92
2024-05-09T12:59:21.886Z,17.05
2024-05-09T13:02:02.188Z,16.39
2024-05-09T13:04:35.862Z,16.60
2024-05-09T13:07:10.405Z,16.53
2024-05-09T13:09:47.796Z,17.84
2024-05-09T13:12:24.333Z,18.85
2024-05-09T13:15:02.683Z,20.08
2024-05-09T13:17:37.002Z,22.13
2024-05-09T13:20:18.921Z,22.13
2024-05-09T13:22:48.818Z,23.00
2024-05-09T13:25:21.954Z,23.28
2024-05-09T13:27:58.027Z,22.38
2024-05-09T13:30:38.997Z,21.40
2024-05-09T13:33:08.445Z,20.53
2024-05-09T13:35:48.730Z,20.58
2024-05-09T13:38:21.217Z,20.58
2024-05-09T13:40:58.167Z,20.67
2024-05-09T13:43:33.302Z,20.53
2024-05-09T13:46:12.491Z,20.53
2024-05-09T13:48:47.175Z,20.89
2024-05-09T13:51:22.106Z,20.92
2024-05-09T13:53:58.760Z,20.70
2024-05-09T13:56:33.825Z,20.10
2024-05-09T13:59:08.082Z,19.52
2024-05-09T14:01:40.893Z,19.35
2024-05-09T14:04:13.578Z,21.04
2024-05-09T14:06:48.375Z,22.02
2024-05-09T14:09:24.821Z,22.02
2024-05-09T14:12:02.842Z,22.34
2024-05-09T14:14:37.474Z,21.26
2024-05-09T14:17:11.208Z,19.59
2024-05-09T14:19:44.331Z,20.52
2024-05-09T14:22:17.945Z,18.04
2024-05-09T14:24:53.223Z,18.81
2024-05-09T14:27:29.810Z,17.70
2024-05-09T14:30:11.758Z,17.71
2024-05-09T14:32:45.547Z,18.45
2024-05-09T14:35:19.524Z,19.54
2024-05-09T14:37:53.447Z,21.18
2024-05-09T14:40:38.944Z,20.75
2024-05-09T14:43:04.608Z,20.11
2024-05-09T14:45:39.245Z,20.52
2024-05-09T14:48:16.571Z,21.15
2024-05-09T14:50:49.739Z,22.24
2024-05-09T14:53:26.581Z,23.87
2024-05-09T14:55:59.159Z,23.87
2024-05-09T14:58:33.322Z,23.63
2024-05-09T15:01:05.913Z,24.61
2024-05-09T15:03:38.396Z,24.61
2024-05-09T15:06:10.841Z,25.32
2024-05-09T15:08:44.056Z,25.43
2024-05-09T15:11:16.421Z,25.50
2024-05-09T15:13:54.054Z,25.83
2024-05-09T15:16:28.513Z,26.70
2024-05-09T15:19:03.698Z,26.64
2024-05-09T15:21:42.425Z,26.89
2024-05-09T15:24:15.116Z,27.35
2024-05-09T15:26:52.749Z,27.18
2024-05-09T15:29:26.828Z,26.89
2024-05-09T15:32:02.740Z,27.14
2024-05-09T15:34:39.771Z,27.65
2024-05-09T15:37:16.396Z,28.05
2024-05-09T15:39:50.376Z,28.43
2024-05-09T15:42:26.335Z,28.87
2024-05-09T15:45:02.107Z,28.50
2024-05-09T15:47:38.486Z,28.70
2024-05-09T15:50:20.497Z,28.31
2024-05-09T15:52:52.766Z,28.72
2024-05-09T15:55:25.290Z,28.71
2024-05-09T15:57:57.834Z,28.82
2024-05-09T16:00:37.717Z,29.29
2024-05-09T16:03:10.481Z,29.20
2024-05-09T16:05:47.236Z,29.00
2024-05-09T16:08:22.714Z,28.69
2024-05-09T16:10:59.993Z,29.64
2024-05-09T16:13:33.743Z,29.78
2024-05-09T16:16:06.739Z,29.75
2024-05-09T16:18:40.829Z,30.82
2024-05-09T16:21:14.103Z,31.06
2024-05-09T16:23:47.046Z,31.91
2024-05-09T16:26:19.959Z,32.22
2024-05-09T16:28:52.764Z,32.66
2024-05-09T16:31:28.141Z,32.66
2024-05-09T16:34:03.839Z,32.54
2024-05-09T16:36:36.844Z,33.02
2024-05-09T16:39:09.922Z,33.75
2024-05-09T16:41:43.924Z,33.15
2024-05-09T16:44:19.620Z,33.49
2024-05-09T16:46:56.206Z,33.45
2024-05-09T16:49:33.650Z,33.24
2024-05-09T16:52:09.937Z,33.51
2024-05-09T16:54:44.272Z,33.53
2024-05-09T16:57:19.922Z,33.53
2024-05-09T16:59:52.405Z,33.96
2024-05-09T17:02:30.718Z,33.40
2024-05-09T17:05:05.286Z,34.50
2024-05-09T17:07:39.031Z,34.26
2024-05-09T17:10:22.192Z,34.58
2024-05-09T17:12:52.570Z,35.15
2024-05-09T17:15:34.461Z,35.15
2024-05-09T17:18:14.375Z,35.22
2024-05-09T17:20:51.664Z,35.13
2024-05-09T17:23:27.653Z,35.61
2024-05-09T17:26:01.821Z,35.54
2024-05-09T17:28:37.161Z,35.71
2024-05-09T17:31:10.923Z,36.22
2024-05-09T17:33:45.361Z,36.50
2024-05-09T17:36:17.589Z,36.96
2024-05-09T17:38:53.428Z,35.82
2024-05-09T17:41:30.450Z,37.03
2024-05-09T17:44:08.702Z,37.89
2024-05-09T17:46:43.462Z,38.51
2024-05-09T17:49:15.811Z,38.31
2024-05-09T17:51:57.229Z,37.02
2024-05-09T17:54:33.498Z,39.03
2024-05-09T17:57:09.301Z,38.82
2024-05-09T17:59:44.370Z,38.72
2024-05-09T18:02:23.207Z,39.79
2024-05-09T18:04:57.279Z,39.86
2024-05-09T18:07:33.692Z,40.64
2024-05-09T18:10:19.326Z,40.36
2024-05-09T18:12:48.757Z,40.61
2024-05-09T18:15:23.590Z,40.59
2024-05-09T18:17:56.710Z,40.52
2024-05-09T18:20:41.395Z,40.71
2024-05-09T18:23:10.104Z,40.62
2024-05-09T18:25:45.145Z,40.73
2024-05-09T18:28:19.868Z,40.19
2024-05-09T18:30:52.882Z,40.55
2024-05-09T18:33:31.511Z,40.47
2024-05-09T18:36:05.725Z,39.99
2024-05-09T18:38:40.961Z,39.40
2024-05-09T18:41:13.983Z,39.84
2024-05-09T18:43:50.491Z,39.51
2024-05-09T18:46:25.128Z,39.86
2024-05-09T18:48:58.847Z,40.26
2024-05-09T18:51:33.291Z,39.42
2024-05-09T18:54:05.854Z,40.08
2024-05-09T18:56:44.482Z,39.49
2024-05-09T18:59:17.532Z,39.66
2024-05-09T19:01:53.364Z,40.23
2024-05-09T19:04:25.931Z,39.95
2024-05-09T19:07:02.509Z,40.72
2024-05-09T19:09:36.975Z,40.85
2024-05-09T19:12:12.044Z,41.39
2024-05-09T19:14:48.022Z,41.29
2024-05-09T19:17:26.188Z,41.60
2024-05-09T19:20:00.089Z,41.13
2024-05-09T19:22:36.264Z,41.00
2024-05-09T19:25:13.331Z,41.31
2024-05-09T19:27:50.102Z,41.99
2024-05-09T19:30:30.044Z,41.80
2024-05-09T19:32:55.167Z,40.70
2024-05-09T19:35:30.935Z,41.51
2024-05-09T19:38:04.412Z,41.91
2024-05-09T19:40:37.369Z,42.22
2024-05-09T19:43:11.314Z,41.91
2024-05-09T19:45:44.407Z,41.75
2024-05-09T19:48:17.460Z,41.39
2024-05-09T19:50:53.107Z,41.63
2024-05-09T19:53:25.863Z,41.03
2024-05-09T19:56:00.988Z,41.93
2024-05-09T19:58:35.530Z,41.75
2024-05-09T20:01:12.078Z,41.96
2024-05-09T20:03:46.501Z,42.48
2024-05-09T20:06:24.358Z,42.13
2024-05-09T20:08:59.204Z,42.46
2024-05-09T20:11:33.301Z,41.97
2024-05-09T20:14:06.081Z,42.26
2024-05-09T20:16:41.204Z,42.40
2024-05-09T20:19:17.452Z,42.28
2024-05-09T20:21:51.527Z,42.10
2024-05-09T20:24:23.836Z,42.06
2024-05-09T20:26:56.754Z,42.41
2024-05-09T20:29:31.173Z,42.23
2024-05-09T20:32:06.159Z,41.59
2024-05-09T20:34:39.129Z,42.08
2024-05-09T20:37:11.838Z,41.60
2024-05-09T20:39:49.772Z,40.66
2024-05-09T20:42:24.434Z,40.79
2024-05-09T20:44:58.035Z,40.74
2024-05-09T20:47:34.415Z,39.90
2024-05-09T20:50:13.668Z,39.96
2024-05-09T20:52:45.617Z,40.63
2024-05-09T20:55:18.426Z,39.91
2024-05-09T20:57:52.543Z,40.76
2024-05-09T21:00:33.875Z,40.16
2024-05-09T21:02:59.657Z,40.25
2024-05-09T21:05:33.109Z,40.69
2024-05-09T21:08:06.175Z,40.46
2024-05-09T21:10:39.269Z,40.42
2024-05-09T21:13:12.051Z,40.29
2024-05-09T21:15:46.183Z,40.33
2024-05-09T21:18:19.020Z,40.43
2024-05-09T21:20:51.643Z,40.38
2024-05-09T21:23:25.858Z,40.67
2024-05-09T21:25:58.661Z,40.79
2024-05-09T21:28:32.699Z,40.90
2024-05-09T21:31:07.230Z,41.04
2024-05-09T21:33:40.467Z,41.51
2024-05-09T21:36:13.578Z,41.60
2024-05-09T21:38:45.935Z,41.90
2024-05-09T21:41:20.037Z,42.21
2024-05-09T21:43:52.914Z,42.28
2024-05-09T21:46:26.042Z,42.61
2024-05-09T21:48:59.414Z,42.88
2024-05-09T21:51:32.558Z,42.93
2024-05-09T21:54:05.524Z,42.96
2024-05-09T21:56:38.679Z,43.01
2024-05-09T21:59:10.754Z,43.06
2024-05-09T22:01:43.742Z,43.02
2024-05-09T22:04:17.354Z,43.26
2024-05-09T22:06:50.000Z,43.10
2024-05-09T22:09:22.687Z,43.11
2024-05-09T22:11:56.580Z,42.86
2024-05-09T22:14:29.308Z,42.65
2024-05-09T22:17:01.665Z,42.50
2024-05-09T22:19:34.198Z,42.58
2024-05-09T22:22:08.703Z,42.76
2024-05-09T22:24:41.359Z,42.28
2024-05-09T22:27:14.575Z,42.53
2024-05-09T22:29:47.026Z,42.23
2024-05-09T22:32:19.409Z,41.75
2024-05-09T22:34:52.330Z,42.18
2024-05-09T22:37:24.942Z,42.13
2024-05-09T22:39:57.547Z,41.85
2024-05-09T22:42:30.097Z,42.05
2024-05-09T22:45:02.406Z,42.50
2024-05-09T22:47:35.341Z,42.39
2024-05-09T22:50:12.964Z,42.09
2024-05-09T22:52:43.776Z,42.23
2024-05-09T22:55:16.024Z,42.25
2024-05-09T22:57:49.487Z,42.17
2024-05-09T23:00:30.831Z,42.21
2024-05-09T23:02:56.696Z,41.86
2024-05-09T23:05:29.912Z,41.89
2024-05-09T23:08:05.426Z,41.96
2024-05-09T23:10:38.465Z,41.97
2024-05-09T23:13:11.560Z,42.04
2024-05-09T23:15:44.509Z,42.02
2024-05-09T23:18:16.893Z,41.88
2024-05-09T23:20:49.269Z,42.06
2024-05-09T23:23:22.053Z,42.22
2024-05-09T23:25:54.945Z,42.28
2024-05-09T23:28:27.228Z,42.33
2024-05-09T23:30:59.551Z,42.05
2024-05-09T23:33:32.007Z,42.17
2024-05-09T23:36:04.345Z,42.53
2024-05-09T23:38:36.634Z,42.08
2024-05-09T23:41:09.302Z,42.43
2024-05-09T23:43:43.075Z,42.13
2024-05-09T23:46:15.569Z,42.02
2024-05-09T23:48:48.073Z,42.35
2024-05-09T23:51:20.451Z,42.25
2024-05-09T23:53:52.614Z,42.66
2024-05-09T23:56:24.910Z,42.58
2024-05-09T23:58:57.225Z,42.75
